createdAt,value
2023-05-12T00:00:13.484Z,17.19
2023-05-12T00:02:43.596Z,17.02
2023-05-12T00:05:12.172Z,16.29
2023-05-12T00:07:41.873Z,16.97
2023-05-12T00:10:11.203Z,16.96
2023-05-12T00:12:39.561Z,16.92
2023-05-12T00:15:09.526Z,16.93
2023-05-12T00:17:37.797Z,16.78
2023-05-12T00:20:07.806Z,16.78
2023-05-12T00:22:36.299Z,16.73
2023-05-12T00:25:07.124Z,16.75
2023-05-12T00:27:35.489Z,16.80
2023-05-12T00:30:03.892Z,16.69
2023-05-12T00:32:32.278Z,16.82
2023-05-12T00:35:00.887Z,16.80
2023-05-12T00:37:29.368Z,16.62
2023-05-12T00:39:57.696Z,16.66
2023-05-12T00:42:27.526Z,16.68
2023-05-12T00:44:55.834Z,16.04
2023-05-12T00:47:24.212Z,16.68
2023-05-12T00:49:53.004Z,16.61
2023-05-12T00:52:22.195Z,16.61
2023-05-12T00:54:51.537Z,16.59
2023-05-12T00:57:22.076Z,16.57
2023-05-12T00:59:51.775Z,16.57
2023-05-12T01:02:20.403Z,16.58
2023-05-12T01:04:49.008Z,16.58
2023-05-12T01:07:20.713Z,16.52
2023-05-12T01:09:49.662Z,16.53
2023-05-12T01:12:17.995Z,16.43
2023-05-12T01:14:46.370Z,16.39
2023-05-12T01:17:21.582Z,16.48
2023-05-12T01:19:54.636Z,16.31
2023-05-12T01:22:23.449Z,16.31
2023-05-12T01:25:03.003Z,16.25
2023-05-12T01:27:35.478Z,16.17
2023-05-12T01:30:07.792Z,16.14
2023-05-12T01:32:37.633Z,16.09
2023-05-12T01:35:08.172Z,16.09
2023-05-12T01:37:38.225Z,16.06
2023-05-12T01:40:09.012Z,16.09
2023-05-12T01:42:40.806Z,16.03
2023-05-12T01:45:11.746Z,15.94
2023-05-12T01:47:40.182Z,15.95
2023-05-12T01:50:11.448Z,15.96
2023-05-12T01:52:40.517Z,15.94
2023-05-12T01:55:12.927Z,15.88
2023-05-12T01:57:53.724Z,15.85
2023-05-12T02:00:22.692Z,15.81
2023-05-12T02:02:54.234Z,15.81
2023-05-12T02:05:22.740Z,15.84
2023-05-12T02:07:51.825Z,15.80
2023-05-12T02:10:20.930Z,15.81
2023-05-12T02:12:49.656Z,15.84
2023-05-12T02:15:19.458Z,15.80
2023-05-12T02:17:50.433Z,15.83
2023-05-12T02:20:20.209Z,15.87
2023-05-12T02:22:48.779Z,15.65
2023-05-12T02:25:17.346Z,15.74
2023-05-12T02:27:46.332Z,15.81
2023-05-12T02:30:15.196Z,15.77
2023-05-12T02:32:44.997Z,15.72
2023-05-12T02:35:14.090Z,15.80
2023-05-12T02:37:43.262Z,15.68
2023-05-12T02:40:12.718Z,15.60
2023-05-12T02:42:43.525Z,15.62
2023-05-12T02:45:13.229Z,15.53
2023-05-12T02:47:46.164Z,15.64
2023-05-12T02:50:14.896Z,15.64
2023-05-12T02:52:43.145Z,15.62
2023-05-12T02:55:11.529Z,15.60
2023-05-12T02:57:39.947Z,15.58
2023-05-12T03:00:09.839Z,15.54
2023-05-12T03:02:41.355Z,15.42
2023-05-12T03:05:11.602Z,15.45
2023-05-12T03:07:40.584Z,15.41
2023-05-12T03:10:11.155Z,15.30
2023-05-12T03:15:29.690Z,15.25
2023-05-12T03:17:58.166Z,15.20
2023-05-12T03:20:28.737Z,15.12
2023-05-12T03:22:57.103Z,15.13
2023-05-12T03:25:25.462Z,15.08
2023-05-12T03:27:54.229Z,15.04
2023-05-12T03:30:22.655Z,15.05
2023-05-12T03:32:50.917Z,15.00
2023-05-12T03:35:19.610Z,15.01
2023-05-12T03:37:49.840Z,14.98
2023-05-12T03:40:19.115Z,14.97
2023-05-12T03:42:48.405Z,14.79
2023-05-12T03:45:19.651Z,14.70
2023-05-12T03:47:48.074Z,14.76
2023-05-12T03:50:16.722Z,14.71
2023-05-12T03:52:45.715Z,14.75
2023-05-12T03:55:15.682Z,14.82
2023-05-12T03:57:44.484Z,14.76
2023-05-12T04:00:14.457Z,14.75
2023-05-12T04:02:46.343Z,14.78
2023-05-12T04:05:16.135Z,14.73
2023-05-12T04:07:44.399Z,14.51
2023-05-12T04:10:12.806Z,14.51
2023-05-12T04:12:42.510Z,14.57
2023-05-12T04:15:14.485Z,14.66
2023-05-12T04:17:42.997Z,14.57
2023-05-12T04:20:12.016Z,14.63
2023-05-12T04:22:40.504Z,14.60
2023-05-12T04:25:10.332Z,14.63
2023-05-12T04:27:40.004Z,14.52
2023-05-12T04:30:11.063Z,14.55
2023-05-12T04:32:41.340Z,14.59
2023-05-12T04:35:10.606Z,14.59
2023-05-12T04:37:39.031Z,14.55
2023-05-12T04:40:09.514Z,14.55
2023-05-12T04:42:37.916Z,14.53
2023-05-12T04:45:10.973Z,14.60
2023-05-12T04:47:39.473Z,14.59
2023-05-12T04:50:10.641Z,14.57
2023-05-12T04:52:39.110Z,14.60
2023-05-12T04:55:08.803Z,14.53
2023-05-12T04:57:37.913Z,14.52
2023-05-12T05:00:08.114Z,14.52
2023-05-12T05:02:38.119Z,14.56
2023-05-12T05:05:07.821Z,14.56
2023-05-12T05:07:36.384Z,14.67
2023-05-12T05:10:05.972Z,14.62
2023-05-12T05:12:34.854Z,14.69
2023-05-12T05:15:03.090Z,14.71
2023-05-12T05:17:31.498Z,14.79
2023-05-12T05:20:03.228Z,14.73
2023-05-12T05:22:34.755Z,14.75
2023-05-12T05:25:03.283Z,14.85
2023-05-12T05:27:31.860Z,14.87
2023-05-12T05:30:00.087Z,14.90
2023-05-12T05:32:28.456Z,14.83
2023-05-12T05:34:56.757Z,14.90
2023-05-12T05:37:27.369Z,14.83
2023-05-12T05:39:57.688Z,14.98
2023-05-12T05:42:26.012Z,14.99
2023-05-12T05:44:54.815Z,15.02
2023-05-12T05:47:24.328Z,15.07
2023-05-12T05:49:52.826Z,15.09
2023-05-12T05:52:21.224Z,15.08
2023-05-12T05:54:51.115Z,15.07
2023-05-12T05:57:21.285Z,15.12
2023-05-12T05:59:50.463Z,15.14
2023-05-12T06:02:18.940Z,15.13
2023-05-12T06:04:47.359Z,15.13
2023-05-12T06:07:16.984Z,15.13
2023-05-12T06:09:45.395Z,15.19
2023-05-12T06:12:15.052Z,15.19
2023-05-12T06:14:43.383Z,15.23
2023-05-12T06:17:11.762Z,15.24
2023-05-12T06:19:40.040Z,15.22
2023-05-12T06:22:08.477Z,15.27
2023-05-12T06:24:36.717Z,15.29
2023-05-12T06:27:05.118Z,15.36
2023-05-12T06:29:34.797Z,15.42
2023-05-12T06:32:03.320Z,15.36
2023-05-12T06:34:31.601Z,15.41
2023-05-12T06:36:59.929Z,14.87
2023-05-12T06:39:28.176Z,15.55
2023-05-12T06:41:56.467Z,15.50
2023-05-12T06:44:24.782Z,15.57
2023-05-12T06:46:57.403Z,15.48
2023-05-12T06:49:25.728Z,15.43
2023-05-12T06:51:54.032Z,15.45
2023-05-12T06:54:22.305Z,15.57
2023-05-12T06:56:50.615Z,15.66
2023-05-12T06:59:21.267Z,15.61
2023-05-12T07:01:49.705Z,15.75
2023-05-12T07:04:21.658Z,15.68
2023-05-12T07:06:50.020Z,15.80
2023-05-12T07:09:18.821Z,15.87
2023-05-12T07:11:47.756Z,15.94
2023-05-12T07:14:16.247Z,15.98
2023-05-12T07:16:44.735Z,16.02
2023-05-12T07:19:13.502Z,16.06
2023-05-12T07:21:43.195Z,16.05
2023-05-12T07:24:11.547Z,16.04
2023-05-12T07:26:39.832Z,16.04
2023-05-12T07:29:12.888Z,16.17
2023-05-12T07:31:42.302Z,15.93
2023-05-12T07:34:10.841Z,16.09
2023-05-12T07:36:39.144Z,16.13
2023-05-12T07:39:08.832Z,16.14
2023-05-12T07:41:39.067Z,16.17
2023-05-12T07:44:07.676Z,15.66
2023-05-12T07:46:36.336Z,16.24
2023-05-12T07:49:04.651Z,16.30
2023-05-12T07:51:32.949Z,16.42
2023-05-12T07:54:01.577Z,16.50
2023-05-12T07:56:31.205Z,16.53
2023-05-12T07:58:59.526Z,16.58
2023-05-12T08:01:27.828Z,16.78
2023-05-12T08:03:56.192Z,16.83
2023-05-12T08:06:24.968Z,16.94
2023-05-12T08:08:53.545Z,16.95
2023-05-12T08:11:21.920Z,16.92
2023-05-12T08:13:51.588Z,16.84
2023-05-12T08:16:19.943Z,16.90
2023-05-12T08:18:48.324Z,16.82
2023-05-12T08:21:16.681Z,16.66
2023-05-12T08:23:45.461Z,16.74
2023-05-12T08:26:13.705Z,16.96
2023-05-12T08:28:42.027Z,17.10
2023-05-12T08:31:11.759Z,16.83
2023-05-12T08:33:40.146Z,17.02
2023-05-12T08:36:08.918Z,17.17
2023-05-12T08:38:37.199Z,17.23
2023-05-12T08:41:15.040Z,17.25
2023-05-12T08:43:45.670Z,17.26
2023-05-12T08:46:15.326Z,17.26
2023-05-12T08:48:44.408Z,17.28
2023-05-12T08:51:14.566Z,17.30
2023-05-12T08:53:43.799Z,17.48
2023-05-12T08:58:50.636Z,17.58
2023-05-12T09:01:21.132Z,17.77
2023-05-12T09:03:49.750Z,17.83
2023-05-12T09:06:18.811Z,17.78
2023-05-12T09:08:47.310Z,17.68
2023-05-12T09:11:17.618Z,17.73
2023-05-12T09:13:53.970Z,17.89
2023-05-12T09:16:26.478Z,17.93
2023-05-12T09:18:58.326Z,17.96
2023-05-12T09:21:27.712Z,18.16
2023-05-12T09:23:57.995Z,18.26
2023-05-12T09:26:28.374Z,18.25
2023-05-12T09:29:08.150Z,18.33
2023-05-12T09:31:38.527Z,18.37
2023-05-12T09:34:10.081Z,18.38
2023-05-12T09:36:38.424Z,18.39
2023-05-12T09:39:09.026Z,18.32
2023-05-12T09:41:37.628Z,18.28
2023-05-12T09:44:06.840Z,18.52
2023-05-12T09:46:35.338Z,18.63
2023-05-12T09:49:05.102Z,18.65
2023-05-12T09:51:33.597Z,18.70
2023-05-12T09:54:02.295Z,18.78
2023-05-12T09:56:33.760Z,18.90
2023-05-12T09:59:06.140Z,18.64
2023-05-12T10:01:34.761Z,18.99
2023-05-12T10:04:09.037Z,19.03
2023-05-12T10:06:42.960Z,19.17
2023-05-12T10:09:18.465Z,19.23
2023-05-12T10:11:50.633Z,19.40
2023-05-12T10:14:20.605Z,19.45
2023-05-12T10:16:51.053Z,19.59
2023-05-12T10:19:21.325Z,19.72
2023-05-12T10:21:50.759Z,19.83
2023-05-12T10:24:19.300Z,19.98
2023-05-12T10:26:47.648Z,19.96
2023-05-12T10:29:16.764Z,20.07
2023-05-12T10:31:48.071Z,20.34
2023-05-12T10:34:20.892Z,20.13
2023-05-12T10:36:51.249Z,20.33
2023-05-12T10:39:19.909Z,20.44
2023-05-12T10:41:48.184Z,20.61
2023-05-12T10:44:16.454Z,20.33
2023-05-12T10:46:45.293Z,20.46
2023-05-12T10:49:15.609Z,20.55
2023-05-12T10:52:01.894Z,20.58
2023-05-12T10:54:30.230Z,20.42
2023-05-12T10:57:02.171Z,20.38
2023-05-12T10:59:32.178Z,20.47
2023-05-12T11:02:05.198Z,20.03
2023-05-12T11:04:41.732Z,20.44
2023-05-12T11:07:14.244Z,19.94
2023-05-12T11:12:17.792Z,19.90
2023-05-12T11:14:47.619Z,20.20
2023-05-12T11:17:16.871Z,20.34
2023-05-12T11:19:48.981Z,20.37
2023-05-12T11:22:21.517Z,20.50
2023-05-12T11:24:52.535Z,20.65
2023-05-12T11:27:23.897Z,20.96
2023-05-12T11:30:00.374Z,21.00
2023-05-12T11:32:29.648Z,21.15
2023-05-12T11:35:09.820Z,21.14
2023-05-12T11:37:43.446Z,21.38
2023-05-12T11:40:17.031Z,21.38
2023-05-12T11:42:48.470Z,21.34
2023-05-12T11:45:25.838Z,21.68
2023-05-12T11:47:56.119Z,21.77
2023-05-12T11:50:26.834Z,21.72
2023-05-12T11:52:58.208Z,21.62
2023-05-12T11:55:26.700Z,21.65
2023-05-12T11:58:01.696Z,21.54
2023-05-12T12:00:32.933Z,21.33
2023-05-12T12:03:12.692Z,21.45
2023-05-12T12:05:43.395Z,21.58
2023-05-12T12:08:14.356Z,21.41
2023-05-12T12:10:45.862Z,21.53
2023-05-12T12:13:14.734Z,21.60
2023-05-12T12:15:43.137Z,21.66
2023-05-12T12:18:11.658Z,21.68
2023-05-12T12:20:39.995Z,21.74
2023-05-12T12:23:08.297Z,21.66
2023-05-12T12:25:38.374Z,21.79
2023-05-12T12:28:06.965Z,21.79
2023-05-12T12:30:35.800Z,21.76
2023-05-12T12:33:04.093Z,21.73
2023-05-12T12:35:32.465Z,21.77
2023-05-12T12:38:00.747Z,21.51
2023-05-12T12:40:29.132Z,21.40
2023-05-12T12:42:58.777Z,21.55
2023-05-12T12:45:27.457Z,21.16
2023-05-12T12:47:55.797Z,20.66
2023-05-12T12:50:25.839Z,20.65
2023-05-12T12:52:55.564Z,20.46
2023-05-12T12:55:24.150Z,20.46
2023-05-12T12:57:52.586Z,20.44
2023-05-12T13:00:24.202Z,20.34
2023-05-12T13:02:52.930Z,20.56
2023-05-12T13:05:21.460Z,20.37
2023-05-12T13:07:51.366Z,20.62
2023-05-12T13:10:19.893Z,20.83
2023-05-12T13:12:48.355Z,20.91
2023-05-12T13:15:19.252Z,21.14
2023-05-12T13:17:49.333Z,20.93
2023-05-12T13:20:17.943Z,21.27
2023-05-12T13:22:46.654Z,20.92
2023-05-12T13:25:15.162Z,21.02
2023-05-12T13:27:43.426Z,21.06
2023-05-12T13:30:13.717Z,21.38
2023-05-12T13:32:42.550Z,21.51
2023-05-12T13:35:12.409Z,21.98
2023-05-12T13:37:40.710Z,21.99
2023-05-12T13:40:10.559Z,22.34
2023-05-12T13:42:38.925Z,22.18
2023-05-12T13:45:09.306Z,22.40
2023-05-12T13:47:37.791Z,22.51
2023-05-12T13:50:07.721Z,22.80
2023-05-12T13:52:37.471Z,23.05
2023-05-12T13:55:06.876Z,23.01
2023-05-12T13:57:35.126Z,23.15
2023-05-12T14:00:04.634Z,23.10
2023-05-12T14:02:34.269Z,23.09
2023-05-12T14:05:02.806Z,22.84
2023-05-12T14:07:31.126Z,22.94
2023-05-12T14:10:01.483Z,22.85
2023-05-12T14:12:30.145Z,22.77
2023-05-12T14:15:11.185Z,22.71
2023-05-12T14:17:47.987Z,22.58
2023-05-12T14:20:16.491Z,22.49
2023-05-12T14:22:44.773Z,22.49
2023-05-12T14:25:16.162Z,22.39
2023-05-12T14:27:45.287Z,22.36
2023-05-12T14:30:15.018Z,22.36
2023-05-12T14:32:43.429Z,22.43
2023-05-12T14:35:11.786Z,22.41
2023-05-12T14:37:40.222Z,22.47
2023-05-12T14:40:10.446Z,22.43
2023-05-12T14:42:40.106Z,22.36
2023-05-12T14:45:09.872Z,22.31
2023-05-12T14:47:38.144Z,22.41
2023-05-12T14:50:07.830Z,22.38
2023-05-12T14:52:38.375Z,22.40
2023-05-12T14:55:11.419Z,22.11
2023-05-12T14:57:41.997Z,22.31
2023-05-12T15:00:12.422Z,22.26
2023-05-12T15:02:41.671Z,22.21
2023-05-12T15:05:13.422Z,22.04
2023-05-12T15:07:42.075Z,21.91
2023-05-12T15:10:11.809Z,22.11
2023-05-12T15:12:41.512Z,22.13
2023-05-12T15:15:12.183Z,22.01
2023-05-12T15:17:40.465Z,22.02
2023-05-12T15:20:10.156Z,21.91
2023-05-12T15:22:38.783Z,22.02
2023-05-12T15:25:09.104Z,21.99
2023-05-12T15:27:37.433Z,22.16
2023-05-12T15:30:09.430Z,22.16
2023-05-12T15:32:40.461Z,22.22
2023-05-12T15:35:09.908Z,22.18
2023-05-12T15:37:38.177Z,22.32
2023-05-12T15:40:09.838Z,22.35
2023-05-12T15:42:38.112Z,22.36
2023-05-12T15:45:10.524Z,22.33
2023-05-12T15:47:38.901Z,22.39
2023-05-12T15:50:10.347Z,22.46
2023-05-12T15:52:38.583Z,22.43
2023-05-12T15:55:07.560Z,22.43
2023-05-12T15:57:35.871Z,22.49
2023-05-12T16:00:05.422Z,22.50
2023-05-12T16:02:42.739Z,22.47
2023-05-12T16:05:12.415Z,22.55
2023-05-12T16:07:40.785Z,22.62
2023-05-12T16:10:10.456Z,22.56
2023-05-12T16:12:38.806Z,22.56
2023-05-12T16:15:08.325Z,22.64
2023-05-12T16:17:36.692Z,22.77
2023-05-12T16:20:09.259Z,22.77
2023-05-12T16:22:37.630Z,22.87
2023-05-12T16:25:07.055Z,22.90
2023-05-12T16:27:36.640Z,22.91
2023-05-12T16:30:06.260Z,22.98
2023-05-12T16:32:34.746Z,22.93
2023-05-12T16:35:03.170Z,22.88
2023-05-12T16:37:32.858Z,22.91
2023-05-12T16:40:01.231Z,22.82
2023-05-12T16:42:29.514Z,22.80
2023-05-12T16:44:57.903Z,22.91
2023-05-12T16:47:26.289Z,22.98
2023-05-12T16:49:54.751Z,23.00
2023-05-12T16:52:23.097Z,23.04
2023-05-12T16:54:53.192Z,23.03
2023-05-12T16:57:21.634Z,23.08
2023-05-12T16:59:49.968Z,23.09
2023-05-12T17:02:18.774Z,22.97
2023-05-12T17:04:47.992Z,23.12
2023-05-12T17:07:16.413Z,23.11
2023-05-12T17:09:44.693Z,23.08
2023-05-12T17:12:15.037Z,22.98
2023-05-12T17:14:47.918Z,23.04
2023-05-12T17:17:21.537Z,23.05
2023-05-12T17:19:51.227Z,22.99
2023-05-12T17:22:21.430Z,22.99
2023-05-12T17:24:49.708Z,22.56
2023-05-12T17:27:19.798Z,22.00
2023-05-12T17:29:48.111Z,21.73
2023-05-12T17:32:17.011Z,21.54
2023-05-12T17:34:45.278Z,21.26
2023-05-12T17:37:13.697Z,21.20
2023-05-12T17:39:44.234Z,21.16
2023-05-12T17:42:12.392Z,21.11
2023-05-12T17:44:41.982Z,21.05
2023-05-12T17:47:13.966Z,20.96
2023-05-12T17:49:42.596Z,20.82
2023-05-12T17:52:10.960Z,20.74
2023-05-12T17:54:39.225Z,20.68
2023-05-12T17:57:07.616Z,19.61
2023-05-12T17:59:36.031Z,19.61
2023-05-12T18:02:06.092Z,19.81
2023-05-12T18:04:34.769Z,20.09
2023-05-12T18:07:03.066Z,20.21
2023-05-12T18:09:31.466Z,20.29
2023-05-12T18:11:59.757Z,20.54
2023-05-12T18:14:30.479Z,20.63
2023-05-12T18:16:58.841Z,20.68
2023-05-12T18:19:28.624Z,20.37
2023-05-12T18:21:56.889Z,20.29
2023-05-12T18:24:25.357Z,20.28
2023-05-12T18:26:53.677Z,20.36
2023-05-12T18:29:21.985Z,20.21
2023-05-12T18:31:50.461Z,20.07
2023-05-12T18:34:18.813Z,19.75
2023-05-12T18:36:48.474Z,19.77
2023-05-12T18:39:16.802Z,18.89
2023-05-12T18:41:45.335Z,19.62
2023-05-12T18:44:13.684Z,19.52
2023-05-12T18:46:41.956Z,19.58
2023-05-12T18:49:11.301Z,19.84
2023-05-12T18:51:39.642Z,19.96
2023-05-12T18:54:09.391Z,19.86
2023-05-12T18:56:37.991Z,19.72
2023-05-12T18:59:06.366Z,19.66
2023-05-12T19:01:35.230Z,19.68
2023-05-12T19:04:03.717Z,19.76
2023-05-12T19:06:32.688Z,19.85
2023-05-12T19:09:01.074Z,19.89
2023-05-12T19:11:31.014Z,19.97
2023-05-12T19:13:59.345Z,19.84
2023-05-12T19:16:29.690Z,19.75
2023-05-12T19:18:58.502Z,19.65
2023-05-12T19:21:27.508Z,19.61
2023-05-12T19:23:56.986Z,19.61
2023-05-12T19:26:26.748Z,19.55
2023-05-12T19:28:56.521Z,19.49
2023-05-12T19:31:24.886Z,19.61
2023-05-12T19:33:53.530Z,19.73
2023-05-12T19:36:21.917Z,19.82
2023-05-12T19:38:50.234Z,19.86
2023-05-12T19:41:18.563Z,19.87
2023-05-12T19:43:46.896Z,19.88
2023-05-12T19:46:16.667Z,19.84
2023-05-12T19:48:45.061Z,19.83
2023-05-12T19:51:13.479Z,19.88
2023-05-12T19:53:43.084Z,19.88
2023-05-12T19:56:11.428Z,19.66
2023-05-12T19:58:39.734Z,19.52
2023-05-12T20:01:08.047Z,19.34
2023-05-12T20:03:37.934Z,19.21
2023-05-12T20:06:06.476Z,19.14
2023-05-12T20:08:34.806Z,19.12
2023-05-12T20:11:03.193Z,19.01
2023-05-12T20:13:32.942Z,18.74
2023-05-12T20:16:01.278Z,18.91
2023-05-12T20:18:29.643Z,18.76
2023-05-12T20:20:59.296Z,18.62
2023-05-12T20:23:27.703Z,18.57
2023-05-12T20:25:56.035Z,18.52
2023-05-12T20:28:24.405Z,18.50
2023-05-12T20:30:52.804Z,18.45
2023-05-12T20:33:21.096Z,18.46
2023-05-12T20:35:49.505Z,18.39
2023-05-12T20:38:19.331Z,18.55
2023-05-12T20:40:47.754Z,18.52
2023-05-12T20:43:16.039Z,18.70
2023-05-12T20:45:44.345Z,18.52
2023-05-12T20:48:12.740Z,18.55
2023-05-12T20:50:42.174Z,18.57
2023-05-12T20:53:10.538Z,18.55
2023-05-12T20:55:43.017Z,18.57
2023-05-12T20:58:11.465Z,18.62
2023-05-12T21:00:39.753Z,18.48
2023-05-12T21:03:14.223Z,18.62
2023-05-12T21:05:47.480Z,18.66
2023-05-12T21:08:16.350Z,18.64
2023-05-12T21:10:46.256Z,18.71
2023-05-12T21:13:14.633Z,18.74
2023-05-12T21:15:42.923Z,18.76
2023-05-12T21:18:13.134Z,18.83
2023-05-12T21:20:41.791Z,18.84
2023-05-12T21:23:11.594Z,18.87
2023-05-12T21:25:40.185Z,18.90
2023-05-12T21:28:09.905Z,18.97
2023-05-12T21:30:38.169Z,18.77
2023-05-12T21:33:06.658Z,19.02
2023-05-12T21:35:35.037Z,19.07
2023-05-12T21:38:04.178Z,19.07
2023-05-12T21:40:33.665Z,19.10
2023-05-12T21:43:01.957Z,19.10
2023-05-12T21:45:31.640Z,18.91
2023-05-12T21:47:59.955Z,19.25
2023-05-12T21:50:28.300Z,19.27
2023-05-12T21:52:56.559Z,19.35
2023-05-12T21:55:24.895Z,19.35
2023-05-12T21:57:53.233Z,19.37
2023-05-12T22:00:21.854Z,19.31
2023-05-12T22:02:51.739Z,19.34
2023-05-12T22:05:20.322Z,19.42
2023-05-12T22:07:48.552Z,19.46
2023-05-12T22:10:16.963Z,19.49
2023-05-12T22:12:45.902Z,19.53
2023-05-12T22:15:14.226Z,19.45
2023-05-12T22:17:43.203Z,19.50
2023-05-12T22:20:14.408Z,19.52
2023-05-12T22:22:42.670Z,19.58
2023-05-12T22:25:11.465Z,19.58
2023-05-12T22:27:39.814Z,19.58
2023-05-12T22:30:10.244Z,19.61
2023-05-12T22:32:38.807Z,19.67
2023-05-12T22:35:08.744Z,19.67
2023-05-12T22:37:38.621Z,19.47
2023-05-12T22:40:08.959Z,19.55
2023-05-12T22:42:37.369Z,19.60
2023-05-12T22:45:06.905Z,19.60
2023-05-12T22:47:35.537Z,19.67
2023-05-12T22:50:03.882Z,19.66
2023-05-12T22:52:32.228Z,19.63
2023-05-12T22:55:01.932Z,19.68
2023-05-12T22:57:30.225Z,19.12
2023-05-12T22:59:58.572Z,19.65
2023-05-12T23:02:26.959Z,19.65
2023-05-12T23:04:55.385Z,19.62
2023-05-12T23:07:23.765Z,19.66
2023-05-12T23:09:52.010Z,19.62
2023-05-12T23:12:22.751Z,19.61
2023-05-12T23:14:51.053Z,19.61
2023-05-12T23:17:20.709Z,19.49
2023-05-12T23:19:49.221Z,19.51
2023-05-12T23:22:17.506Z,18.91
2023-05-12T23:24:45.854Z,19.54
2023-05-12T23:27:14.113Z,19.54
2023-05-12T23:29:43.728Z,19.52
2023-05-12T23:32:12.166Z,19.51
2023-05-12T23:34:40.599Z,19.45
2023-05-12T23:37:09.182Z,19.43
2023-05-12T23:39:37.580Z,19.41
2023-05-12T23:42:06.700Z,19.39
2023-05-12T23:44:34.976Z,19.31
2023-05-12T23:47:04.770Z,19.40
2023-05-12T23:49:33.101Z,19.28
2023-05-12T23:52:01.307Z,19.32
2023-05-12T23:54:29.664Z,19.36
2023-05-12T23:56:57.898Z,19.36
2023-05-12T23:59:26.427Z,19.32
